Time;durP1;ratioP1;P1;durP2;ratioP2;P2;SDS_P1;SDS_P2;PMS_P1;PMS_P2;Temp;Humidity;BMP_temperature;BMP_pressure;BME280_temperature;BME280_humidity;BME280_pressure;Samples;Min_cycle;Max_cycle;Signal;HPM_P1;HPM_P2
2022/02/10 00:16:21;;;;;;;6.53;4.53;;;;;;;6.79;60.34;100864.41;5111712;28;20461;-50
2022/02/10 00:21:36;;;;;;;6.65;4.75;;;;;;;6.65;61.11;100856.03;5111504;28;20418;-49
2022/02/10 00:35:02;;;;;;;6.57;4.80;;;;;;;6.82;60.36;100846.44;5110999;28;20042;-48
2022/02/10 00:37:37;;;;;;;7.70;4.88;;;;;;;7.08;59.51;100832.41;5111125;28;20023;-51
2022/02/10 00:40:10;;;;;;;5.82;4.43;;;;;;;6.72;60.19;100844.84;5110338;28;20398;-50
2022/02/10 00:42:36;;;;;;;6.82;4.70;;;;;;;6.73;60.38;100841.22;5110969;28;20050;-49
2022/02/10 00:45:01;;;;;;;7.05;4.85;;;;;;;6.53;61.21;100835.22;5111454;28;20478;-51
2022/02/10 00:47:29;;;;;;;6.03;4.38;;;;;;;6.61;60.78;100836.16;5110615;28;20023;-48
2022/02/10 00:49:58;;;;;;;7.68;4.60;;;;;;;6.51;61.39;100837.19;5111213;28;20035;-48
2022/02/10 00:52:24;;;;;;;6.90;4.80;;;;;;;7.19;59.19;100834.81;5110906;28;20023;-48
2022/02/10 00:54:50;;;;;;;8.02;4.97;;;;;;;6.79;59.89;100836.13;5111545;28;20028;-48
2022/02/10 00:57:18;;;;;;;6.97;4.35;;;;;;;6.62;61.11;100842.28;5111192;28;20455;-49
2022/02/10 01:13:05;;;;;;;8.07;4.70;;;;;;;6.83;59.09;100845.47;5110830;28;20042;-51
2022/02/10 01:31:40;;;;;;;7.18;4.78;;;;;;;6.88;58.86;100836.22;5110816;28;20088;-49
2022/02/10 01:34:06;;;;;;;7.25;4.90;;;;;;;6.77;58.65;100830.19;5110503;28;20031;-49
2022/02/10 01:36:31;;;;;;;8.20;4.45;;;;;;;6.69;59.26;100837.22;5110647;28;20046;-49
2022/02/10 01:38:57;;;;;;;7.20;4.60;;;;;;;6.48;60.40;100842.81;5110660;28;20028;-52
2022/02/10 01:58:02;;;;;;;7.13;5.03;;;;;;;5.65;62.62;100827.75;5113727;28;20035;-49
2022/02/10 02:03:26;;;;;;;6.68;4.97;;;;;;;5.76;63.35;100821.47;5114203;28;20098;-49
2022/02/10 02:06:01;;;;;;;7.97;5.03;;;;;;;5.78;62.65;100827.44;5114061;28;20058;-49
2022/02/10 02:08:29;;;;;;;6.82;4.60;;;;;;;5.84;62.30;100817.09;5114258;28;20020;-49
2022/02/10 02:10:55;;;;;;;11.65;5.28;;;;;;;5.56;63.02;100818.06;5114098;28;20069;-49
2022/02/10 02:13:21;;;;;;;7.05;4.70;;;;;;;5.59;63.61;100821.25;5114257;28;20043;-49
2022/02/10 02:15:46;;;;;;;6.20;4.50;;;;;;;5.39;63.92;100822.31;5113968;28;20523;-49
2022/02/10 02:18:12;;;;;;;6.95;5.00;;;;;;;5.37;63.82;100822.44;5113500;28;20016;-49
2022/02/10 02:20:37;;;;;;;7.85;5.30;;;;;;;5.43;64.05;100821.03;5114006;27;20020;-49
2022/02/10 02:23:04;;;;;;;8.20;5.40;;;;;;;5.34;63.48;100824.53;5113703;28;20467;-49
2022/02/10 02:25:29;;;;;;;9.32;5.65;;;;;;;5.38;63.62;100816.16;5113366;28;20432;-50
2022/02/10 02:27:57;;;;;;;7.85;5.60;;;;;;;5.37;64.47;100813.66;5113346;28;20042;-51
2022/02/10 02:30:33;;;;;;;10.38;5.55;;;;;;;5.18;64.48;100814.53;5113311;28;20074;-50
2022/02/10 02:33:31;;;;;;;7.43;4.95;;;;;;;5.18;63.75;100820.69;5113334;28;20027;-48
2022/02/10 03:08:52;;;;;;;7.05;5.43;;;;;;;5.46;63.15;100821.59;5079738;28;20038;-50
2022/02/10 03:11:18;;;;;;;8.38;5.50;;;;;;;5.24;63.69;100822.75;5092460;28;20120;-48
2022/02/10 03:13:50;;;;;;;7.15;5.00;;;;;;;5.32;62.58;100821.22;5098020;28;20487;-52
2022/02/10 03:18:57;;;;;;;6.72;4.82;;;;;;;5.50;62.38;100822.09;5112750;28;20108;-47
2022/02/10 04:02:47;;;;;;;6.53;4.72;;;;;;;4.69;64.42;100843.63;5111420;28;20100;-48
2022/02/10 04:05:09;;;;;;;7.25;5.05;;;;;;;4.49;64.58;100842.75;5111379;28;20046;-51
2022/02/10 04:23:00;;;;;;;48.38;23.25;;;;;;;4.66;64.98;100865.84;5112090;28;20038;-49
2022/02/10 04:25:57;;;;;;;27.27;13.82;;;;;;;4.48;64.97;100873.56;5112184;28;20107;-49
2022/02/10 04:31:06;;;;;;;15.27;7.68;;;;;;;4.34;65.17;100884.53;5111967;28;20075;-50
2022/02/10 04:39:48;;;;;;;11.35;6.60;;;;;;;4.00;65.85;100879.56;5111006;28;20031;-50
2022/02/10 05:01:23;;;;;;;15.05;7.18;;;;;;;3.36;69.43;100898.19;5111615;28;20039;-49
2022/02/10 05:17:19;;;;;;;14.98;8.27;;;;;;;4.52;76.92;100899.66;5111005;28;19978;-52
2022/02/10 05:36:21;;;;;;;16.83;9.70;;;;;;;3.03;71.48;100911.38;5051509;28;20031;-49
2022/02/10 05:38:59;;;;;;;17.10;9.55;;;;;;;2.89;72.23;100922.19;5102728;28;20040;-50
2022/02/10 05:41:56;;;;;;;17.65;9.70;;;;;;;2.81;72.01;100924.63;5114110;28;20027;-48
2022/02/10 05:55:30;;;;;;;22.65;11.07;;;;;;;3.81;68.93;100924.22;5113788;28;20449;-49
2022/02/10 06:50:12;;;;;;;23.08;10.82;;;;;;;8.23;55.91;100947.88;5111233;28;20091;-49
2022/02/10 06:58:38;;;;;;;15.60;9.32;;;;;;;9.76;50.60;100940.47;5110074;28;20015;-50
2022/02/10 07:11:44;;;;;;;13.00;8.20;;;;;;;10.95;46.01;100941.34;5111783;28;20127;-50
2022/02/10 07:52:38;;;;;;;20.98;12.07;;;;;;;12.08;42.00;100938.88;5111582;28;20027;-48
2022/02/10 08:56:41;;;;;;;12.13;6.55;;;;;;;14.59;37.55;100953.09;5110247;28;20369;-48
2022/02/10 09:04:28;;;;;;;10.18;6.63;;;;;;;13.86;38.80;100962.34;5114974;28;20084;-48
2022/02/10 09:15:21;;;;;;;9.68;6.82;;;;;;;14.74;38.07;100963.66;5114794;28;20076;-49
2022/02/10 09:21:18;;;;;;;11.50;6.43;;;;;;;13.86;39.28;100957.00;5114735;28;20509;-50
2022/02/10 09:47:58;;;;;;;10.93;7.32;;;;;;;14.31;39.02;100940.56;5114250;28;20520;-51
2022/02/10 09:51:49;;;;;;;13.38;8.27;;;;;;;14.01;39.95;100931.97;5099106;28;20552;-50
2022/02/10 09:56:00;;;;;;;11.63;7.45;;;;;;;14.59;39.72;100932.47;5114056;28;20031;-49
2022/02/10 09:58:39;;;;;;;12.75;7.32;;;;;;;14.46;39.13;100919.00;5113804;28;20020;-51
2022/02/10 10:01:24;;;;;;;11.18;7.30;;;;;;;13.58;40.90;100908.84;5112431;28;20304;-51
2022/02/10 10:03:59;;;;;;;11.02;7.40;;;;;;;14.02;41.90;100909.53;5113154;28;20023;-51
2022/02/10 10:06:42;;;;;;;10.77;7.15;;;;;;;14.72;39.80;100902.22;5113557;28;20027;-48
2022/02/10 10:14:23;;;;;;;11.35;7.35;;;;;;;14.69;40.17;100891.91;5112144;28;20121;-48
2022/02/10 10:17:08;;;;;;;11.60;7.30;;;;;;;14.81;39.46;100884.09;5113478;28;20019;-51
2022/02/10 10:19:57;;;;;;;12.82;7.00;;;;;;;13.96;41.25;100873.69;5113535;28;20079;-48
2022/02/10 10:23:05;;;;;;;10.45;7.55;;;;;;;14.32;40.96;100867.25;5112890;28;20035;-48
2022/02/10 10:56:24;;;;;;;10.55;7.10;;;;;;;15.87;36.94;100797.38;5112724;28;20530;-49
2022/02/10 10:58:30;;;;;;;15.18;7.38;;;;;;;15.15;38.65;100791.94;5100599;28;20544;-50
2022/02/10 11:03:33;;;;;;;12.07;7.38;;;;;;;15.17;37.47;100781.84;5112657;28;20027;-50
2022/02/10 11:42:08;;;;;;;8.52;5.70;;;;;;;16.17;37.50;100724.31;5111476;28;20091;-51
2022/02/10 14:13:39;;;;;;;8.70;4.88;;;;;;;15.58;34.20;100618.94;5087271;28;20525;-50
2022/02/10 14:16:27;;;;;;;6.70;4.88;;;;;;;15.00;35.04;100617.97;5086866;28;20103;-50
2022/02/10 14:18:57;;;;;;;9.95;5.32;;;;;;;14.63;35.64;100611.44;5086893;28;20028;-48
2022/02/10 14:21:31;;;;;;;9.15;4.72;;;;;;;14.73;35.58;100611.00;5086941;28;20028;-48
2022/02/10 14:26:45;;;;;;;10.18;4.72;;;;;;;15.08;34.77;100613.38;5086980;28;20380;-50
2022/02/10 14:29:11;;;;;;;9.98;5.22;;;;;;;14.58;36.12;100613.91;5086573;28;20048;-51
2022/02/10 14:31:37;;;;;;;11.23;5.95;;;;;;;14.66;36.42;100611.03;5074624;28;20097;-49
2022/02/10 14:34:03;;;;;;;8.80;5.68;;;;;;;15.27;35.49;100617.84;5072548;28;20439;-50
2022/02/10 14:36:42;;;;;;;12.48;6.00;;;;;;;15.10;35.42;100611.31;5073206;28;20028;-49
2022/02/10 15:28:55;;;;;;;8.55;6.18;;;;;;;13.62;39.34;100607.06;5071871;28;20036;-48
2022/02/10 15:57:01;;;;;;;11.93;7.05;;;;;;;12.90;41.00;100594.03;5071412;28;20031;-49
2022/02/10 16:18:10;;;;;;;19.52;8.80;;;;;;;12.93;45.81;100591.97;5071277;28;20028;-49
2022/02/10 16:20:36;;;;;;;19.38;9.88;;;;;;;13.61;40.49;100600.06;5065432;28;20032;-51
2022/02/10 16:23:05;;;;;;;14.38;7.03;;;;;;;12.48;42.91;100592.34;5051849;28;20060;-49
2022/02/10 16:25:36;;;;;;;20.85;7.63;;;;;;;11.74;44.44;100596.22;5068668;28;20085;-48
2022/02/10 16:28:24;;;;;;;17.23;6.88;;;;;;;11.25;45.92;100600.44;5070723;28;20545;-48
2022/02/10 16:30:50;;;;;;;15.20;7.80;;;;;;;11.55;44.75;100608.34;5070421;28;20082;-49
2022/02/10 16:33:15;;;;;;;17.08;8.50;;;;;;;11.99;44.25;100604.69;5069800;28;20052;-48
2022/02/10 16:35:42;;;;;;;24.77;9.60;;;;;;;11.49;45.47;100604.56;5070462;28;20082;-48
2022/02/10 16:38:08;;;;;;;43.30;16.63;;;;;;;11.28;45.17;100602.69;5069811;28;20039;-49
2022/02/10 16:40:34;;;;;;;28.45;14.73;;;;;;;10.98;46.76;100607.25;5069650;28;20021;-48
2022/02/10 16:42:59;;;;;;;65.45;36.53;;;;;;;10.63;46.91;100608.81;5070218;28;20018;-49
2022/02/10 16:45:25;;;;;;;48.80;24.63;;;;;;;10.46;47.92;100608.97;5069901;28;20070;-49
2022/02/10 16:47:50;;;;;;;30.45;12.40;;;;;;;10.50;48.17;100609.44;5069793;28;20020;-48
2022/02/10 16:50:17;;;;;;;24.73;10.05;;;;;;;10.42;47.84;100613.00;5069332;28;20065;-54
2022/02/10 16:52:50;;;;;;;19.92;9.43;;;;;;;10.10;48.93;100614.09;5067498;28;20016;-48
2022/02/10 17:14:18;;;;;;;22.27;13.27;;;;;;;9.91;49.80;100624.22;5067646;28;20039;-49
2022/02/10 17:19:27;;;;;;;31.45;13.55;;;;;;;10.06;50.05;100618.13;5069908;28;20103;-49
2022/02/10 17:53:55;;;;;;;44.83;21.30;;;;;;;9.84;51.73;100625.09;5069946;28;20051;-39
2022/02/10 17:56:20;;;;;;;55.67;30.10;;;;;;;9.74;51.63;100628.00;5070198;28;20043;-39
2022/02/10 17:58:46;;;;;;;56.17;29.60;;;;;;;9.58;52.46;100631.59;5051619;28;20424;-38
2022/02/10 18:01:12;;;;;;;59.38;28.92;;;;;;;9.46;53.08;100630.31;5070024;28;20476;-38
2022/02/10 18:03:37;;;;;;;30.35;13.75;;;;;;;10.00;51.60;100617.00;5069935;28;20055;-37
2022/02/10 18:08:33;;;;;;;27.42;13.18;;;;;;;9.41;52.37;100635.34;5073546;28;20029;-38
2022/02/10 18:11:44;;;;;;;30.52;13.45;;;;;;;9.33;52.58;100629.06;5056446;28;20395;-39
2022/02/10 18:14:09;;;;;;;27.80;15.00;;;;;;;8.98;54.02;100636.50;5059950;28;20246;-37
2022/02/10 18:16:48;;;;;;;34.72;17.45;;;;;;;8.99;54.39;100632.84;5055004;28;20021;-50
2022/02/10 18:19:25;;;;;;;38.28;19.27;;;;;;;8.87;54.66;100636.03;5065550;28;20567;-49
2022/02/10 18:22:19;;;;;;;40.72;20.10;;;;;;;8.92;54.82;100637.19;5073532;28;20032;-48
2022/02/10 18:27:20;;;;;;;73.45;33.13;;;;;;;8.59;55.76;100641.75;5053288;28;20546;-49
2022/02/10 18:30:00;;;;;;;127.60;55.95;;;;;;;8.30;57.34;100637.78;5055842;28;20108;-51
2022/02/10 19:10:12;;;;;;;175.27;92.05;;;;;;;8.21;58.82;100652.84;5066197;28;20033;-53
2022/02/10 19:12:43;;;;;;;86.00;42.08;;;;;;;8.09;58.12;100654.19;5071748;28;20448;-49
2022/02/10 19:15:20;;;;;;;75.88;40.13;;;;;;;8.02;58.68;100661.94;5072140;28;20483;-51
2022/02/10 19:17:46;;;;;;;72.55;36.95;;;;;;;7.71;59.54;100661.75;5071420;28;20033;-49
2022/02/10 19:20:12;;;;;;;92.28;44.78;;;;;;;7.76;60.52;100661.25;5070965;28;20024;-51
2022/02/10 19:22:38;;;;;;;165.32;78.90;;;;;;;7.87;62.29;100665.44;5071023;28;20040;-50
2022/02/10 19:25:07;;;;;;;83.82;42.30;;;;;;;7.98;59.61;100665.09;5068849;28;20090;-38
2022/02/10 19:27:34;;;;;;;72.15;34.58;;;;;;;7.83;59.34;100663.09;5072517;28;20101;-38
2022/02/10 19:29:59;;;;;;;64.95;32.28;;;;;;;7.41;59.50;100629.56;5072307;28;20070;-55
2022/02/10 19:32:29;;;;;;;65.15;32.00;;;;;;;7.43;60.49;100664.66;5053714;28;20056;-39
2022/02/10 19:34:57;;;;;;;73.82;36.15;;;;;;;8.30;57.85;100663.44;5072054;28;20492;-38
2022/02/10 19:37:22;;;;;;;65.03;33.10;;;;;;;8.19;57.66;100669.94;5071928;28;20034;-38
2022/02/10 19:39:54;;;;;;;76.78;37.35;;;;;;;7.74;61.62;100671.19;5071789;28;20008;-39
2022/02/10 19:42:19;;;;;;;75.72;37.50;;;;;;;7.41;61.79;100668.44;5069209;28;20028;-51
2022/02/10 19:44:45;;;;;;;87.10;45.28;;;;;;;7.22;63.13;100669.53;5072031;28;20028;-49
2022/02/10 19:47:10;;;;;;;143.60;71.30;;;;;;;7.22;63.25;100673.00;5071764;28;20039;-51
2022/02/10 19:49:37;;;;;;;103.65;49.50;;;;;;;7.26;62.18;100662.09;5071781;28;20078;-49
2022/02/10 19:52:04;;;;;;;75.90;37.80;;;;;;;7.16;61.99;100659.56;5071631;28;20090;-50
2022/02/10 19:54:36;;;;;;;71.70;34.97;;;;;;;7.07;62.00;100666.66;5071818;28;20442;-38
2022/02/10 19:57:02;;;;;;;74.20;36.15;;;;;;;6.94;62.77;100656.47;5071732;28;20046;-37
2022/02/10 19:59:30;;;;;;;78.82;37.15;;;;;;;6.90;63.00;100657.78;5071472;28;20528;-37
2022/02/10 20:01:55;;;;;;;72.85;35.90;;;;;;;6.83;63.55;100662.91;5071607;28;20047;-37
2022/02/10 20:04:21;;;;;;;79.15;35.65;;;;;;;7.02;62.63;100661.00;5071556;28;20479;-38
2022/02/10 20:06:47;;;;;;;70.97;34.47;;;;;;;7.02;62.47;100671.56;5068933;28;20013;-39
2022/02/10 20:09:13;;;;;;;76.82;36.10;;;;;;;7.66;60.38;100661.41;5071208;28;20029;-38
2022/02/10 20:11:39;;;;;;;78.05;38.55;;;;;;;7.11;62.44;100665.34;5071889;28;20046;-39
2022/02/10 20:14:04;;;;;;;87.13;40.30;;;;;;;6.93;63.01;100664.56;5071378;28;20091;-39
2022/02/10 20:16:30;;;;;;;236.05;101.18;;;;;;;6.78;63.93;100661.69;5071344;28;20024;-38
2022/02/10 20:18:55;;;;;;;88.35;41.33;;;;;;;6.56;65.09;100658.56;5071342;28;20377;-38
2022/02/10 20:21:21;;;;;;;84.10;38.92;;;;;;;6.63;64.72;100664.09;5052978;28;20028;-37
2022/02/10 20:23:47;;;;;;;78.72;38.58;;;;;;;6.56;64.34;100663.03;5071479;28;20017;-54
2022/02/10 20:26:13;;;;;;;81.97;39.83;;;;;;;7.42;61.45;100660.34;5071281;28;20025;-50
2022/02/10 20:28:39;;;;;;;81.40;37.20;;;;;;;6.96;62.55;100661.63;5070494;28;20020;-52
2022/02/10 20:31:04;;;;;;;84.90;36.00;;;;;;;6.95;62.38;100649.38;5071074;28;20563;-53
2022/02/10 20:33:30;;;;;;;71.47;35.17;;;;;;;6.57;63.69;100652.31;5070544;28;20060;-51
2022/02/10 20:35:58;;;;;;;75.97;36.63;;;;;;;6.54;64.15;100652.59;5068449;28;20043;-48
2022/02/10 20:38:24;;;;;;;73.85;34.35;;;;;;;6.31;65.01;100657.56;5058745;28;20020;-50
2022/02/10 20:40:58;;;;;;;101.75;49.35;;;;;;;6.20;65.48;100657.81;5070816;28;20454;-50
2022/02/10 20:43:24;;;;;;;146.10;63.72;;;;;;;6.16;65.73;100659.91;5070675;28;20039;-50
2022/02/10 20:45:55;;;;;;;83.55;37.67;;;;;;;6.14;65.26;100656.59;5070956;28;20024;-51
2022/02/10 20:48:22;;;;;;;73.13;35.13;;;;;;;6.74;63.53;100655.03;5070568;28;20053;-49
2022/02/10 20:50:52;;;;;;;76.32;35.35;;;;;;;6.74;63.05;100655.88;5070289;28;20103;-52
2022/02/10 20:53:18;;;;;;;76.63;37.38;;;;;;;6.49;63.97;100649.59;5068204;28;20432;-50
2022/02/10 20:55:43;;;;;;;78.80;38.42;;;;;;;6.29;64.69;100653.44;5049942;28;20036;-49
2022/02/10 20:58:09;;;;;;;113.22;48.83;;;;;;;6.09;65.54;100653.56;5049997;28;20025;-50
2022/02/10 21:00:34;;;;;;;103.57;45.05;;;;;;;5.82;66.00;100650.00;5050449;28;20013;-52
2022/02/10 21:03:00;;;;;;;85.18;38.92;;;;;;;5.85;66.22;100646.25;5050227;28;20033;-52
2022/02/10 21:08:14;;;;;;;88.22;38.17;;;;;;;5.99;65.53;100650.19;5050178;28;20017;-50
2022/02/10 21:10:39;;;;;;;75.03;35.67;;;;;;;5.93;64.82;100645.47;5050338;28;20032;-50
2022/02/10 21:13:06;;;;;;;78.15;35.35;;;;;;;5.86;65.62;100645.25;5050277;28;20472;-49
2022/02/10 21:15:39;;;;;;;78.07;35.75;;;;;;;5.60;66.20;100645.16;5050356;28;20029;-48
2022/02/10 21:18:06;;;;;;;74.38;32.72;;;;;;;5.72;65.68;100643.13;5032336;28;20078;-51
2022/02/10 21:20:33;;;;;;;70.15;34.10;;;;;;;5.84;65.23;100648.03;5050349;28;20028;-51
2022/02/10 21:23:14;;;;;;;71.30;32.58;;;;;;;5.80;65.30;100641.38;5066255;28;20025;-49
2022/02/10 21:25:40;;;;;;;65.97;29.45;;;;;;;5.45;66.09;100639.56;5068829;28;20020;-50
2022/02/10 21:28:19;;;;;;;56.35;27.88;;;;;;;5.33;66.50;100633.66;5069853;28;20024;-48
2022/02/10 21:30:46;;;;;;;53.10;25.73;;;;;;;5.18;66.62;100633.31;5069787;28;20037;-48
2022/02/10 21:33:20;;;;;;;50.28;24.40;;;;;;;5.05;66.80;100641.56;5069427;28;20055;-50
2022/02/10 21:38:31;;;;;;;41.65;21.02;;;;;;;4.93;67.57;100640.09;5068591;28;20102;-49
2022/02/10 21:47:35;;;;;;;40.30;21.20;;;;;;;4.78;67.71;100637.09;5073088;28;20055;-50
2022/02/10 21:55:27;;;;;;;28.85;14.02;;;;;;;5.21;65.25;100632.19;5073537;28;20093;-49
2022/02/10 22:21:34;;;;;;;31.70;15.13;;;;;;;4.47;68.06;100615.38;5072968;28;20028;-50
2022/02/10 22:24:01;;;;;;;30.35;15.77;;;;;;;4.43;68.40;100616.63;5070117;28;20020;-50
2022/02/10 22:26:30;;;;;;;29.50;15.95;;;;;;;4.26;68.50;100597.94;5072842;28;20024;-52
2022/02/10 22:29:08;;;;;;;34.50;18.25;;;;;;;4.32;69.04;100599.16;5072628;28;20476;-50
2022/02/10 22:34:34;;;;;;;44.78;21.33;;;;;;;4.39;68.75;100589.72;5070470;28;20060;-51
2022/02/10 22:36:56;;;;;;;40.50;20.77;;;;;;;4.36;68.82;100586.53;5070466;28;20123;-48
2022/02/10 22:39:22;;;;;;;38.65;20.30;;;;;;;4.16;69.55;100589.22;5070697;28;20017;-48
2022/02/10 22:41:48;;;;;;;40.95;21.55;;;;;;;4.44;69.16;100576.16;5072701;28;20024;-51
2022/02/10 22:44:13;;;;;;;39.95;20.73;;;;;;;4.55;68.19;100580.38;5072882;28;20071;-50
2022/02/10 22:46:39;;;;;;;44.33;22.23;;;;;;;4.40;68.85;100583.50;5073088;28;20028;-52
2022/02/10 22:49:04;;;;;;;43.85;22.58;;;;;;;4.26;68.71;100573.41;5072666;28;20459;-50
2022/02/10 22:51:31;;;;;;;47.08;23.55;;;;;;;4.30;69.09;100569.50;5076970;28;20032;-50
2022/02/10 22:53:56;;;;;;;47.20;25.00;;;;;;;4.41;68.59;100568.50;5092929;28;20111;-50
2022/02/10 22:56:24;;;;;;;49.42;24.05;;;;;;;4.39;68.87;100565.19;5093084;28;20031;-49
2022/02/10 22:58:52;;;;;;;42.40;23.02;;;;;;;4.06;69.71;100562.09;5092831;28;20016;-50
2022/02/10 23:01:17;;;;;;;47.42;24.10;;;;;;;4.08;69.57;100568.03;5074732;28;20024;-50
2022/02/10 23:03:43;;;;;;;44.63;23.25;;;;;;;4.13;69.72;100563.16;5092875;28;20511;-52
2022/02/10 23:06:09;;;;;;;51.50;24.08;;;;;;;4.07;69.49;100561.94;5092773;28;20020;-49
2022/02/10 23:08:35;;;;;;;48.65;25.00;;;;;;;4.08;69.23;100560.13;5092923;28;20027;-51
2022/02/10 23:11:01;;;;;;;47.05;24.58;;;;;;;3.92;69.83;100558.91;5092939;28;20468;-51
2022/02/10 23:13:29;;;;;;;44.55;23.63;;;;;;;3.71;70.52;100555.56;5092763;28;20224;-49
2022/02/10 23:15:56;;;;;;;43.22;22.33;;;;;;;3.62;71.40;100543.28;5092300;28;20547;-51
2022/02/10 23:18:30;;;;;;;53.20;23.02;;;;;;;3.68;70.58;100540.91;5092410;28;20036;-51
2022/02/10 23:20:57;;;;;;;49.13;22.55;;;;;;;3.52;71.39;100540.63;5092347;28;20032;-53
2022/02/10 23:23:23;;;;;;;46.35;23.92;;;;;;;3.67;71.40;100535.78;5092449;28;20043;-48
2022/02/10 23:25:50;;;;;;;46.97;24.85;;;;;;;3.46;71.71;100531.47;5092045;28;20028;-51
2022/02/10 23:28:18;;;;;;;43.00;21.58;;;;;;;3.75;70.38;100533.28;5091929;28;20364;-51
2022/02/10 23:30:46;;;;;;;44.67;23.25;;;;;;;3.86;69.67;100530.47;5091926;28;20115;-49
2022/02/10 23:33:30;;;;;;;43.42;21.98;;;;;;;3.86;69.92;100524.38;5091685;28;20059;-48
2022/02/10 23:38:40;;;;;;;49.17;22.35;;;;;;;3.59;70.34;100518.03;5092138;28;20060;-51
2022/02/10 23:43:31;;;;;;;49.15;25.08;;;;;;;3.56;70.90;100520.13;5091440;28;20085;-49
2022/02/10 23:45:56;;;;;;;57.13;27.63;;;;;;;3.53;70.81;100518.59;5091912;28;20031;-48
2022/02/10 23:48:22;;;;;;;50.00;24.92;;;;;;;3.32;71.17;100509.03;5084360;28;20089;-51
2022/02/10 23:50:47;;;;;;;52.65;24.70;;;;;;;3.29;71.23;100508.47;5071675;28;20024;-50
2022/02/10 23:53:13;;;;;;;56.45;27.13;;;;;;;3.23;71.95;100509.03;5090166;28;20603;-50
2022/02/10 23:55:40;;;;;;;47.17;23.50;;;;;;;3.12;72.97;100513.47;5091698;28;20024;-48
